Oakdale, CT (06370)

4:05 PM EDT on August 26, 2016 (GMT -0400)
Oakdale Middle School | | Change Station

Elev 0 ft 41.47 °N, 72.19 °W | Updated 17 seconds ago

Partly Cloudy
Partly Cloudy
86.7 °F
Feels Like 96 °F
N
0.0
Wind Variable Wind from South
Gusts 1.0 mph

Today
High -- | Low -- °F
--% Chance of Precip.
Yesterday
High -- | Low -- °F
Precip. -- in
Pressure 29.95 in
Visibility 7.0 miles
Clouds Few 10000 ft
Heat Index 96 °F
Dew Point 75 °F
Humidity 69%
Rainfall 0.00 in
Snow Depth Not available.
6:09 AM 7:30 PM
Waning Crescent, 31% visible
METAR KGON 261956Z 24009KT 7SM FEW100 29/23 A2995 RMK AO2 SLP140 T02940228
Pressure 29.95 in
Visibility 7.0 miles
Clouds Few 10000 ft
Heat Index 96 °F
Dew Point 75 °F
Humidity 69%
Rainfall 0.00 in
Snow Depth Not available.
6:09 AM 7:30 PM
Waning Crescent, 31% visible
METAR KGON 261956Z 24009KT 7SM FEW100 29/23 A2995 RMK AO2 SLP140 T02940228

10-Day Weather Forecast

Almanac

Astronomy

Aug. 26, 2016 Rise Set
Actual Time
Civil Twilight
Nautical Twilight
Astronomical Twilight
Moon
Length of Visible Light
Length of Day
Tomorrow will be .
, % of the Moon is Illuminated

Today's Extremes

State Highs State Lows

Community

WunderPhotos

Upload Photos

1,935,191 photos uploaded!

WunderBlog® & News

Nearby

Air Quality

  Air Quality AQ Index Pollutant
Not available.

Snow Depth

Station Depth Elevation

Earthquake Activity

City Distance Mag. Time & Date
Minimum magnitude displayed is 2.5.

Coastal Water Temperatures

Place Temperature

Stations

Nearby Weather Stations

Station Location Temp. Windchill Dew Point Humidity Wind Precip. Elev Updated Type
                   

Watches & Warnings

There are currently no watches in effect.